Flinter Rose — PBUB — position and weather

sailwx.info

Track history (hours):
 
Tides and Currents Weather Stations Pressure Air Temp Water Temp Dewpoint Dewpoint Depression Visibility Wind Speed Wind Dir Waves Ship Positions

Flinter Rose

Last reported at 2015-Aug-22 03:31 UTC. Time now 2015-Aug-31 15:26 UTC.
Position N 40°55' E 028°60'.
Warning: this ship's position is 9 days out of date.

Length 101 m; draft 4.1 m.

Type: Cargo ship. MMSI: 246227000.

Date/timePositionNaut miles runAvg speedWind from/ knotsBaromVisibWave heightAir tempDewpointWater temp
2015-Aug-22 03:31N 40°55' E 028°60'9 8.7
2015-Aug-22 02:31N 40°48' E 029°06'9 9.3
2015-Aug-22 01:33N 40°45' E 029°17'6 0.3
2015-Aug-21 06:32N 40°44' E 029°24'1010.0
2015-Aug-21 05:33N 40°43' E 029°11'1110.8
2015-Aug-21 04:33N 40°40' E 028°58'1310.3
2015-Aug-21 03:19N 40°32' E 028°45'17 9.6
2015-Aug-21 01:33N 40°25' E 029°05'0 0.0
2015-Aug-21 00:05N 40°25' E 029°05'0 0.0
2015-Aug-20 21:23N 40°25' E 029°05'0 0.0
2015-Aug-20 20:23N 40°25' E 029°05'  
2015-Aug-16 20:31N 37°33' E 024°10'1111.1
2015-Aug-16 19:34N 37°24' E 024°03'1110.9
2015-Aug-16 18:33N 37°15' E 023°55'1110.6
2015-Aug-16 17:34N 37°06' E 023°48'1110.9
2015-Aug-16 16:33N 36°57' E 023°40'1111.0
2015-Aug-16 15:33N 36°47' E 023°33'1110.8
2015-Aug-16 14:33N 36°38' E 023°26'1111.3
2015-Aug-16 13:33N 36°29' E 023°18'486 9.7
2015-Aug-14 11:33N 39°20' E 013°41'1210.7
2015-Aug-14 10:24N 39°27' E 013°27'1210.8
2015-Aug-14 09:15N 39°33' E 013°14'810.9
2015-Aug-14 08:33N 39°37' E 013°05'1111.0
2015-Aug-14 07:33N 39°43' E 012°53'1111.0
2015-Aug-14 06:33N 39°49' E 012°41'1111.0
2015-Aug-14 05:33N 39°55' E 012°29'1110.8
2015-Aug-14 04:32N 40°01' E 012°16'1410.6
2015-Aug-14 03:11N 40°08' E 012°00'2810.5
2015-Aug-14 00:33N 40°22' E 011°29'1610.5
2015-Aug-13 23:04N 40°31' E 011°12'610.8
2015-Aug-13 22:33N 40°34' E 011°06'1110.8
2015-Aug-13 21:33N 40°40' E 010°54'1211.2
2015-Aug-13 20:26N 40°46' E 010°40'14510.4
2015-Aug-13 06:32N 41°53' E 007°49'6410.7
2015-Aug-13 00:33N 42°28' E 006°36'3310.6
2015-Aug-12 21:30N 42°45' E 005°59'1010.2
2015-Aug-12 20:33N 42°50' E 005°48'1010.4
2015-Aug-12 19:33N 42°56' E 005°36'1110.9
2015-Aug-12 18:33N 43°01' E 005°23'1111.2
2015-Aug-12 17:33N 43°07' E 005°10'1010.2
2015-Aug-12 16:33N 43°15' E 005°00'1010.0
2015-Aug-12 15:33N 43°24' E 004°54'2 2.0
2015-Aug-12 14:32N 43°26' E 004°53'0 0.0
2015-Aug-12 13:31N 43°26' E 004°53'0 0.0
2015-Aug-12 12:31N 43°26' E 004°53'0 0.0
2015-Aug-12 11:31N 43°26' E 004°53'0 0.0
2015-Aug-12 10:31N 43°26' E 004°53'0 0.0
2015-Aug-12 09:32N 43°26' E 004°53'0 0.0
2015-Aug-12 08:33N 43°26' E 004°53'0 0.0
2015-Aug-12 07:31N 43°26' E 004°53'0 0.0
2015-Aug-12 06:33N 43°26' E 004°53'0 0.0
2015-Aug-12 05:33N 43°26' E 004°53'0 0.0
2015-Aug-12 04:33N 43°26' E 004°53'0 0.0
2015-Aug-12 03:33N 43°26' E 004°53'  
Track history (hours):
 
Tides and Currents Weather Stations Pressure Air Temp Water Temp Dewpoint Dewpoint Depression Visibility Wind Speed Wind Dir Waves Ship Positions

Flinter Rose

Last reported at 2015-Aug-22 03:31 UTC. Time now 2015-Aug-31 15:26 UTC.
Position N 40°55' E 028°60'.
Warning: this ship's position is 9 days out of date.

Length 101 m; draft 4.1 m.

Type: Cargo ship. MMSI: 246227000.

Date/timePositionNaut miles runAvg speedWind from/ knotsBaromVisibWave heightAir tempDewpointWater temp
2015-Aug-22 03:31N 40°55' E 028°60'9 8.7
2015-Aug-22 02:31N 40°48' E 029°06'9 9.3
2015-Aug-22 01:33N 40°45' E 029°17'6 0.3
2015-Aug-21 06:32N 40°44' E 029°24'1010.0
2015-Aug-21 05:33N 40°43' E 029°11'1110.8
2015-Aug-21 04:33N 40°40' E 028°58'1310.3
2015-Aug-21 03:19N 40°32' E 028°45'17 9.6
2015-Aug-21 01:33N 40°25' E 029°05'0 0.0
2015-Aug-21 00:05N 40°25' E 029°05'0 0.0
2015-Aug-20 21:23N 40°25' E 029°05'0 0.0
2015-Aug-20 20:23N 40°25' E 029°05'  
2015-Aug-16 20:31N 37°33' E 024°10'1111.1
2015-Aug-16 19:34N 37°24' E 024°03'1110.9
2015-Aug-16 18:33N 37°15' E 023°55'1110.6
2015-Aug-16 17:34N 37°06' E 023°48'1110.9
2015-Aug-16 16:33N 36°57' E 023°40'1111.0
2015-Aug-16 15:33N 36°47' E 023°33'1110.8
2015-Aug-16 14:33N 36°38' E 023°26'1111.3
2015-Aug-16 13:33N 36°29' E 023°18'486 9.7
2015-Aug-14 11:33N 39°20' E 013°41'1210.7
2015-Aug-14 10:24N 39°27' E 013°27'1210.8
2015-Aug-14 09:15N 39°33' E 013°14'810.9
2015-Aug-14 08:33N 39°37' E 013°05'1111.0
2015-Aug-14 07:33N 39°43' E 012°53'1111.0
2015-Aug-14 06:33N 39°49' E 012°41'1111.0
2015-Aug-14 05:33N 39°55' E 012°29'1110.8
2015-Aug-14 04:32N 40°01' E 012°16'1410.6
2015-Aug-14 03:11N 40°08' E 012°00'2810.5
2015-Aug-14 00:33N 40°22' E 011°29'1610.5
2015-Aug-13 23:04N 40°31' E 011°12'610.8
2015-Aug-13 22:33N 40°34' E 011°06'1110.8
2015-Aug-13 21:33N 40°40' E 010°54'1211.2
2015-Aug-13 20:26N 40°46' E 010°40'14510.4
2015-Aug-13 06:32N 41°53' E 007°49'6410.7
2015-Aug-13 00:33N 42°28' E 006°36'3310.6
2015-Aug-12 21:30N 42°45' E 005°59'1010.2
2015-Aug-12 20:33N 42°50' E 005°48'1010.4
2015-Aug-12 19:33N 42°56' E 005°36'1110.9
2015-Aug-12 18:33N 43°01' E 005°23'1111.2
2015-Aug-12 17:33N 43°07' E 005°10'1010.2
2015-Aug-12 16:33N 43°15' E 005°00'1010.0
2015-Aug-12 15:33N 43°24' E 004°54'2 2.0
2015-Aug-12 14:32N 43°26' E 004°53'0 0.0
2015-Aug-12 13:31N 43°26' E 004°53'0 0.0
2015-Aug-12 12:31N 43°26' E 004°53'0 0.0
2015-Aug-12 11:31N 43°26' E 004°53'0 0.0
2015-Aug-12 10:31N 43°26' E 004°53'0 0.0
2015-Aug-12 09:32N 43°26' E 004°53'0 0.0
2015-Aug-12 08:33N 43°26' E 004°53'0 0.0
2015-Aug-12 07:31N 43°26' E 004°53'0 0.0
2015-Aug-12 06:33N 43°26' E 004°53'0 0.0
2015-Aug-12 05:33N 43°26' E 004°53'0 0.0
2015-Aug-12 04:33N 43°26' E 004°53'0 0.0
2015-Aug-12 03:33N 43°26' E 004°53'  

Dump ship's entire track history